Terminal Aerodrome Forecast
Issued by NWS Grand Forks, ND

Home | Current Version | Previous Version | Text Only | Print | Product List | Glossary Off
Versions: 1 2 3 4 5 6 7 8 9 10 11 12 13 14 15 16

000
FTUS43 KFGF 221125
TAFFAR
TAF
KFAR 221125Z 2212/2312 16013KT P6SM BKN250 WS010/18050KT
     FM221400 16014KT P6SM BKN250
     FM221600 17018G27KT P6SM BKN060
     FM230700 16013KT P6SM VCTS OVC040CB=

USA.gov is the U.S. government's official web portal to all federal, state and local government web resources and services.